San Remo, Italy

8:56 AM CET on February 10, 2016 (GMT +0100)
Ospedaletti - Villa Gabry B&B - Tel. +39 0184 1956295 | | Change Station
CLOSE
Current Station
Personal Weather Station
Location: Ospedaletti, LIGURIA
Elevation: 420 ft
Nearby Weather Stations

Elev 420 ft 43.80 °N, 7.70 °E | Updated 1 second ago

Partly Cloudy
Partly Cloudy
53.4 °F
Feels Like 53.4 °F
N
3.8
Wind Variable Wind from NNW
Gusts 6.2 mph

Today
High -- | Low -- °F
--% Chance of Precip.
Yesterday
High -- | Low -- °F
Precip. -- in
Pressure 29.59 in
Visibility 6.2 miles
Clouds Few 2300 ft
Dew Point 35 °F
Humidity 49%
Rainfall 0.00 in
Snow Depth Not available.
7:35 AM 5:51 PM
Waxing Crescent, 4% visible
METAR LFMN 100730Z 25019KT 9999 FEW023 08/M00 Q1002 NOSIG
Pressure 29.59 in
Visibility 6.2 miles
Clouds Few 2300 ft
Dew Point 35 °F
Humidity 49%
Rainfall 0.00 in
Snow Depth Not available.
7:35 AM 5:51 PM
Waxing Crescent, 4% visible
METAR LFMN 100730Z 25019KT 9999 FEW023 08/M00 Q1002 NOSIG

10-Day Weather Forecast

Almanac

Astronomy

Feb. 10, 2016 Rise Set
Actual Time
Civil Twilight
Nautical Twilight
Astronomical Twilight
Moon
Length of Visible Light
Length of Day
Tomorrow will be .
, % of the Moon is Illuminated

Today's Extremes

Country Highs Country Lows

Community

WunderPhotos

Upload Photos

1,891,826 photos uploaded!

WunderBlog® & News

Nearby

Air Quality

  Air Quality AQ Index Pollutant
Not available.

Snow Depth

Station Depth Elevation

Earthquake Activity

City Distance Mag. Time & Date
Minimum magnitude displayed is 2.5.

Coastal Water Temperatures

Place Temperature

Stations

Nearby Weather Stations

Station Location Temp. Windchill Dew Point Humidity Wind Precip. Elev Updated Type